Time;durP1;ratioP1;P1;durP2;ratioP2;P2;SDS_P1;SDS_P2;PMS_P1;PMS_P2;Temp;Humidity;BMP_temperature;BMP_pressure;BME280_temperature;BME280_humidity;BME280_pressure;Samples;Min_cycle;Max_cycle;Signal;HPM_P1;HPM_P2
2022/03/30 00:02:15;;;;;;;17.40;2.60;;;4.70;91.30;;;;;;5262831;28;20472;-48
2022/03/30 00:04:45;;;;;;;10.10;2.00;;;4.70;91.50;;;;;;5266182;28;20584;-48
2022/03/30 00:07:16;;;;;;;4.73;1.97;;;4.70;91.50;;;;;;5264056;28;20170;-47
2022/03/30 00:09:46;;;;;;;6.37;2.27;;;4.70;92.10;;;;;;5267712;28;20248;-48
2022/03/30 00:12:17;;;;;;;6.70;2.33;;;4.70;92.00;;;;;;5258396;28;20189;-47
2022/03/30 00:14:47;;;;;;;4.60;1.80;;;4.70;92.30;;;;;;5253432;28;20194;-48
2022/03/30 00:17:18;;;;;;;6.70;2.00;;;4.70;92.80;;;;;;5252494;28;20236;-47
2022/03/30 00:19:48;;;;;;;12.03;2.20;;;4.70;92.80;;;;;;5251763;28;20276;-48
2022/03/30 00:22:19;;;;;;;4.07;2.33;;;4.60;93.00;;;;;;5262667;28;20650;-48
2022/03/30 00:24:49;;;;;;;6.37;2.27;;;4.60;93.40;;;;;;5266586;28;20696;-48
2022/03/30 00:27:20;;;;;;;8.13;2.57;;;4.60;93.90;;;;;;5258306;28;20634;-47
2022/03/30 00:29:51;;;;;;;9.83;2.30;;;4.60;94.50;;;;;;5270095;28;20289;-48
2022/03/30 00:32:21;;;;;;;11.37;2.43;;;4.60;94.80;;;;;;5258213;28;20186;-48
2022/03/30 00:34:52;;;;;;;13.93;2.93;;;4.60;95.10;;;;;;5259697;28;20183;-48
2022/03/30 00:37:22;;;;;;;4.67;2.03;;;4.60;95.50;;;;;;5264421;28;20565;-48
2022/03/30 00:39:53;;;;;;;5.47;1.80;;;4.60;95.50;;;;;;5254692;28;20323;-47
2022/03/30 00:42:24;;;;;;;10.10;1.70;;;4.70;95.50;;;;;;5257293;28;20188;-47
2022/03/30 00:44:55;;;;;;;15.73;2.40;;;4.70;95.40;;;;;;5250734;28;20294;-47
2022/03/30 00:47:27;;;;;;;9.90;2.13;;;4.70;95.30;;;;;;5253973;28;20843;-47
2022/03/30 00:49:57;;;;;;;5.60;2.50;;;4.70;95.30;;;;;;5255276;28;20195;-48
2022/03/30 00:52:28;;;;;;;4.23;1.63;;;4.70;95.40;;;;;;5258199;28;20499;-47
2022/03/30 00:54:58;;;;;;;5.40;2.07;;;4.60;95.40;;;;;;5249487;28;20729;-48
2022/03/30 00:57:30;;;;;;;3.17;1.63;;;4.60;95.80;;;;;;5259117;28;20299;-48
2022/03/30 01:00:02;;;;;;;4.77;1.97;;;4.60;96.10;;;;;;5252839;28;20217;-47
2022/03/30 01:02:32;;;;;;;6.40;1.80;;;4.60;96.20;;;;;;5253669;28;20445;-49
2022/03/30 01:05:03;;;;;;;6.60;1.73;;;4.60;96.60;;;;;;5278172;28;20953;-47
2022/03/30 01:07:34;;;;;;;2.27;1.57;;;4.60;96.60;;;;;;5264598;28;20203;-47
2022/03/30 01:10:05;;;;;;;3.60;2.53;;;4.60;96.50;;;;;;5269534;28;20432;-49
2022/03/30 01:12:39;;;;;;;6.27;1.93;;;4.60;96.70;;;;;;5253584;28;20195;-47
2022/03/30 01:15:12;;;;;;;9.77;2.53;;;4.60;96.90;;;;;;5261371;28;20432;-48
2022/03/30 01:17:42;;;;;;;6.87;2.20;;;4.60;97.10;;;;;;5256315;28;20443;-48
2022/03/30 01:20:17;;;;;;;10.37;2.27;;;4.60;97.20;;;;;;5257646;28;20434;-48
2022/03/30 01:22:49;;;;;;;13.93;3.70;;;4.60;97.50;;;;;;5254077;28;20186;-50
2022/03/30 01:25:19;;;;;;;10.63;5.80;;;4.60;97.50;;;;;;5251207;28;20414;-47
2022/03/30 01:27:50;;;;;;;12.23;7.50;;;4.50;97.60;;;;;;5250561;28;20971;-49
2022/03/30 01:33:09;;;;;;;17.10;4.53;;;4.50;97.90;;;;;;5254478;28;20205;-47
2022/03/30 01:35:40;;;;;;;10.50;3.63;;;4.50;98.10;;;;;;5250030;28;20437;-48
2022/03/30 01:38:11;;;;;;;14.47;3.50;;;4.50;98.30;;;;;;5249242;28;20263;-48
2022/03/30 01:40:42;;;;;;;16.83;2.80;;;4.50;98.50;;;;;;5259073;28;20466;-47
2022/03/30 01:43:12;;;;;;;11.43;2.50;;;4.50;98.60;;;;;;5263088;28;20206;-48
2022/03/30 01:45:43;;;;;;;7.10;2.33;;;4.40;98.70;;;;;;5253938;28;20180;-47
2022/03/30 01:48:13;;;;;;;7.30;2.57;;;4.50;98.80;;;;;;5254561;28;20205;-49
2022/03/30 01:50:44;;;;;;;2.47;1.80;;;4.40;98.90;;;;;;5259948;28;20251;-48
2022/03/30 01:53:14;;;;;;;4.73;1.83;;;4.40;99.20;;;;;;5252157;28;20186;-48
2022/03/30 01:55:45;;;;;;;5.80;2.80;;;4.40;99.30;;;;;;5261542;28;20170;-47
2022/03/30 01:58:17;;;;;;;7.80;2.30;;;4.40;99.50;;;;;;5257952;28;20201;-48
2022/03/30 02:00:47;;;;;;;11.00;2.30;;;4.40;99.80;;;;;;5262951;28;20432;-48
2022/03/30 02:03:19;;;;;;;5.07;2.00;;;4.30;99.90;;;;;;5262884;28;21026;-48
2022/03/30 02:05:49;;;;;;;6.83;2.20;;;4.30;99.90;;;;;;5264390;28;20178;-47
2022/03/30 02:08:20;;;;;;;10.20;2.47;;;4.30;99.90;;;;;;5254263;28;20451;-48
2022/03/30 02:10:50;;;;;;;5.63;2.30;;;4.30;99.90;;;;;;5263862;28;20200;-49
2022/03/30 02:13:21;;;;;;;10.57;2.67;;;4.30;99.90;;;;;;5251191;28;20319;-49
2022/03/30 02:15:52;;;;;;;9.07;3.00;;;4.30;99.90;;;;;;5249689;28;20315;-50
2022/03/30 02:18:23;;;;;;;5.90;3.07;;;4.30;99.90;;;;;;5249436;28;20602;-47
2022/03/30 02:20:54;;;;;;;13.00;3.10;;;4.20;99.90;;;;;;5251676;28;20189;-47
2022/03/30 02:23:24;;;;;;;6.47;2.50;;;4.30;99.90;;;;;;5262052;28;20202;-47
2022/03/30 02:25:55;;;;;;;8.50;2.63;;;4.30;99.90;;;;;;5261757;28;20433;-48
2022/03/30 02:28:26;;;;;;;7.23;3.10;;;4.20;99.90;;;;;;5244587;22;20595;-48
2022/03/30 02:30:56;;;;;;;4.00;2.57;;;4.30;99.90;;;;;;5174124;28;20192;-47
2022/03/30 02:33:27;;;;;;;6.00;2.40;;;4.20;99.90;;;;;;5172391;28;20594;-46
2022/03/30 02:35:57;;;;;;;11.30;2.30;;;4.20;99.90;;;;;;5182492;28;20204;-47
2022/03/30 02:38:28;;;;;;;7.33;2.77;;;4.20;99.90;;;;;;5181229;28;20277;-48
2022/03/30 02:40:58;;;;;;;7.00;2.00;;;4.20;99.90;;;;;;5182562;28;20180;-46
2022/03/30 02:43:29;;;;;;;8.70;2.10;;;4.20;99.90;;;;;;5186244;28;20204;-47
2022/03/30 02:46:00;;;;;;;8.73;2.27;;;4.20;99.90;;;;;;5175115;28;20223;-48
2022/03/30 02:48:33;;;;;;;5.93;2.00;;;4.20;99.90;;;;;;5257759;28;20581;-47
2022/03/30 02:51:06;;;;;;;5.93;2.87;;;4.20;99.90;;;;;;5177690;28;20181;-45
2022/03/30 02:53:37;;;;;;;9.87;2.77;;;4.20;99.90;;;;;;5178447;28;20440;-46
2022/03/30 02:56:07;;;;;;;5.63;2.13;;;4.20;99.90;;;;;;5184575;28;20841;-48
2022/03/30 02:58:39;;;;;;;9.80;2.80;;;4.20;99.90;;;;;;5180711;28;20215;-46
2022/03/30 03:01:10;;;;;;;13.30;3.40;;;4.30;99.90;;;;;;5166376;28;20184;-49
2022/03/30 03:03:40;;;;;;;10.57;3.00;;;4.20;99.90;;;;;;5181529;28;20542;-47
2022/03/30 03:06:12;;;;;;;11.53;3.17;;;4.20;99.90;;;;;;5177793;28;20185;-47
2022/03/30 03:08:43;;;;;;;10.63;3.60;;;4.20;99.90;;;;;;5185522;28;20291;-48
2022/03/30 03:11:13;;;;;;;11.33;2.70;;;4.20;99.90;;;;;;5263590;28;20515;-48
2022/03/30 03:13:44;;;;;;;5.43;2.80;;;4.10;99.90;;;;;;5275431;27;20196;-49
2022/03/30 03:16:14;;;;;;;12.50;2.73;;;4.10;99.90;;;;;;5182416;28;20254;-49
2022/03/30 03:18:46;;;;;;;5.50;2.20;;;4.10;99.90;;;;;;5180001;28;20219;-48
2022/03/30 03:21:17;;;;;;;16.37;2.30;;;4.00;99.90;;;;;;5183459;28;20207;-49
2022/03/30 03:23:47;;;;;;;13.93;2.50;;;4.00;99.90;;;;;;5180512;28;20514;-48
2022/03/30 03:26:19;;;;;;;4.73;1.70;;;3.90;99.90;;;;;;5184342;28;20208;-48
2022/03/30 03:28:50;;;;;;;5.73;2.50;;;3.90;99.90;;;;;;5279199;28;21014;-48
2022/03/30 03:31:20;;;;;;;8.80;2.60;;;3.80;99.90;;;;;;5190017;28;20675;-48
2022/03/30 03:33:51;;;;;;;5.83;2.50;;;3.80;99.90;;;;;;5189553;28;20563;-48
2022/03/30 03:36:22;;;;;;;5.50;2.13;;;3.80;99.90;;;;;;5179585;28;20427;-48
2022/03/30 03:38:52;;;;;;;5.80;2.33;;;3.70;99.90;;;;;;5178052;28;20704;-48
2022/03/30 03:41:23;;;;;;;3.73;1.90;;;3.70;99.90;;;;;;5168547;28;20279;-47
2022/03/30 03:43:53;;;;;;;8.97;2.53;;;3.70;99.90;;;;;;5277692;28;20287;-48
2022/03/30 03:46:24;;;;;;;7.90;2.63;;;3.70;99.90;;;;;;5171803;28;20189;-48
2022/03/30 03:48:55;;;;;;;8.50;3.57;;;3.60;99.90;;;;;;5171596;28;20617;-48
2022/03/30 03:51:26;;;;;;;14.70;2.90;;;3.60;99.90;;;;;;5182906;28;20484;-47
2022/03/30 03:53:57;;;;;;;7.80;2.90;;;3.60;99.90;;;;;;5283430;28;20436;-47
2022/03/30 03:56:27;;;;;;;8.23;2.23;;;3.60;99.90;;;;;;5180039;28;20204;-46
2022/03/30 03:58:58;;;;;;;9.00;3.10;;;3.60;99.90;;;;;;5179604;28;20614;-48
2022/03/30 04:01:29;;;;;;;8.67;3.00;;;3.50;99.90;;;;;;5280722;28;20204;-49
2022/03/30 04:04:00;;;;;;;7.10;1.63;;;3.50;99.90;;;;;;5180885;28;20216;-50
2022/03/30 04:06:32;;;;;;;4.27;2.43;;;3.50;99.90;;;;;;5173880;28;20503;-48
2022/03/30 04:09:02;;;;;;;12.10;2.57;;;3.50;99.90;;;;;;5179215;28;20291;-49
2022/03/30 04:11:33;;;;;;;4.77;2.63;;;3.50;99.90;;;;;;5178089;28;20506;-48
2022/03/30 04:14:03;;;;;;;11.47;3.57;;;3.50;99.90;;;;;;5170521;28;20566;-47
2022/03/30 04:16:34;;;;;;;10.20;2.97;;;3.50;99.90;;;;;;5159170;28;20207;-48
2022/03/30 04:19:04;;;;;;;12.07;2.63;;;3.50;99.90;;;;;;5186498;28;20287;-48
2022/03/30 04:21:35;;;;;;;8.23;3.50;;;3.50;99.90;;;;;;5182762;28;20207;-47
2022/03/30 04:24:06;;;;;;;11.03;3.90;;;3.40;99.90;;;;;;5180503;28;20209;-47
2022/03/30 04:26:38;;;;;;;5.43;2.40;;;3.50;99.90;;;;;;5182765;28;20231;-49
2022/03/30 04:29:08;;;;;;;13.47;3.70;;;3.60;99.90;;;;;;5191895;28;20278;-48
2022/03/30 04:31:39;;;;;;;9.20;3.60;;;3.60;99.90;;;;;;5186210;28;20525;-48
2022/03/30 04:34:11;;;;;;;12.00;3.43;;;3.60;99.90;;;;;;5178674;28;20488;-48
2022/03/30 04:36:41;;;;;;;4.63;2.40;;;3.70;99.90;;;;;;5180724;28;20238;-48
2022/03/30 04:39:12;;;;;;;4.77;2.70;;;3.70;99.90;;;;;;5178748;28;20459;-48
2022/03/30 04:41:42;;;;;;;20.53;3.77;;;3.80;99.90;;;;;;5180863;28;20326;-47
2022/03/30 04:44:13;;;;;;;4.43;2.67;;;3.80;99.90;;;;;;5281306;27;20676;-48
2022/03/30 04:46:43;;;;;;;11.60;3.30;;;3.90;99.90;;;;;;5174488;28;20191;-47
2022/03/30 04:49:14;;;;;;;6.40;2.90;;;3.90;99.90;;;;;;5171560;28;20656;-48
2022/03/30 04:51:45;;;;;;;14.80;5.23;;;3.90;99.90;;;;;;5182687;28;20187;-48
2022/03/30 04:54:17;;;;;;;11.63;3.50;;;4.00;99.90;;;;;;5207250;28;20440;-47
2022/03/30 04:56:51;;;;;;;8.47;2.63;;;4.00;99.90;;;;;;5182291;28;20192;-48
2022/03/30 04:59:22;;;;;;;10.93;2.90;;;4.00;99.90;;;;;;5176080;28;20443;-48
2022/03/30 05:01:53;;;;;;;21.80;4.27;;;4.10;99.90;;;;;;5176228;28;20436;-48
2022/03/30 05:04:23;;;;;;;11.73;3.90;;;4.10;99.90;;;;;;5179686;28;20204;-48
2022/03/30 05:06:54;;;;;;;10.57;2.97;;;4.20;99.90;;;;;;5181598;28;20200;-48
2022/03/30 05:09:24;;;;;;;10.67;3.53;;;4.30;99.90;;;;;;5176387;28;20204;-48
2022/03/30 05:11:55;;;;;;;10.30;3.10;;;4.20;99.90;;;;;;5286292;27;20176;-46
2022/03/30 05:14:26;;;;;;;5.43;3.10;;;4.30;99.90;;;;;;5185468;28;20177;-49
2022/03/30 05:16:57;;;;;;;12.83;3.20;;;4.30;99.90;;;;;;5176865;28;20493;-48
2022/03/30 05:19:28;;;;;;;5.47;2.97;;;4.30;99.90;;;;;;5173635;28;20305;-49
2022/03/30 05:21:58;;;;;;;6.80;3.00;;;4.40;99.90;;;;;;5165659;28;20280;-48
2022/03/30 05:24:29;;;;;;;11.20;3.33;;;4.40;99.90;;;;;;5183637;28;20213;-46
2022/03/30 05:26:59;;;;;;;38.30;3.50;;;4.40;99.90;;;;;;5178870;28;20544;-48
2022/03/30 05:29:31;;;;;;;6.47;2.17;;;4.40;99.90;;;;;;5183537;28;20248;-48
2022/03/30 05:32:01;;;;;;;10.47;2.80;;;4.50;99.90;;;;;;5180772;28;20196;-48
2022/03/30 05:34:32;;;;;;;5.77;2.53;;;4.60;99.90;;;;;;5178001;28;20522;-49
2022/03/30 05:37:03;;;;;;;10.20;2.80;;;4.70;99.90;;;;;;5175895;28;20201;-48
2022/03/30 05:39:35;;;;;;;6.17;2.87;;;4.70;99.90;;;;;;5176364;28;20205;-49
2022/03/30 05:42:06;;;;;;;15.47;3.00;;;4.80;99.90;;;;;;5180359;28;20447;-48
2022/03/30 05:44:37;;;;;;;11.27;3.57;;;4.80;99.90;;;;;;5184526;28;20464;-48
2022/03/30 05:47:09;;;;;;;6.30;3.00;;;4.80;99.90;;;;;;5182366;28;20185;-47
2022/03/30 05:49:39;;;;;;;9.67;2.60;;;4.80;99.90;;;;;;5181331;28;20466;-48
2022/03/30 05:52:10;;;;;;;5.63;2.83;;;4.90;99.90;;;;;;5211476;28;20416;-47
2022/03/30 05:54:41;;;;;;;9.80;3.70;;;4.90;99.90;;;;;;5210541;28;20247;-48
2022/03/30 05:57:11;;;;;;;14.63;3.57;;;5.00;99.90;;;;;;5281256;27;20181;-46
2022/03/30 05:59:43;;;;;;;10.57;3.87;;;5.20;99.90;;;;;;5281028;27;20210;-48
2022/03/30 06:02:15;;;;;;;5.87;2.27;;;5.30;99.90;;;;;;5287203;27;20183;-46
2022/03/30 06:04:46;;;;;;;8.97;2.90;;;5.50;99.90;;;;;;5181097;28;20468;-47
2022/03/30 06:07:17;;;;;;;11.13;2.80;;;5.50;99.90;;;;;;5181728;28;20448;-47
2022/03/30 06:09:47;;;;;;;11.67;3.40;;;5.40;99.90;;;;;;5173341;28;20286;-46
2022/03/30 06:12:18;;;;;;;5.40;2.70;;;5.40;99.90;;;;;;5180678;28;20443;-47
2022/03/30 06:14:48;;;;;;;10.47;2.50;;;5.40;99.90;;;;;;5175218;28;20264;-50
2022/03/30 06:17:20;;;;;;;4.50;2.03;;;5.50;99.90;;;;;;5177566;28;20194;-48
2022/03/30 06:19:53;;;;;;;11.70;2.87;;;5.50;99.90;;;;;;5177826;28;20881;-46
2022/03/30 06:22:26;;;;;;;9.23;2.47;;;5.50;99.90;;;;;;5177761;28;20497;-47
2022/03/30 06:24:58;;;;;;;7.70;2.00;;;5.50;99.90;;;;;;5182091;28;20563;-49
2022/03/30 06:27:29;;;;;;;6.30;1.93;;;5.70;99.90;;;;;;5180751;28;20453;-47
2022/03/30 06:29:59;;;;;;;9.73;2.07;;;5.80;99.90;;;;;;5180410;28;20517;-46
2022/03/30 06:32:30;;;;;;;9.70;2.67;;;6.00;99.90;;;;;;5181784;28;20200;-46
2022/03/30 06:35:04;;;;;;;13.07;2.57;;;6.20;99.20;;;;;;5280441;27;20720;-47
2022/03/30 06:37:35;;;;;;;8.10;2.80;;;6.30;97.70;;;;;;5192883;28;20269;-48
2022/03/30 06:40:06;;;;;;;8.43;2.60;;;6.40;97.50;;;;;;5267740;28;20884;-47
2022/03/30 06:42:38;;;;;;;10.20;2.57;;;6.60;97.00;;;;;;5270420;27;20186;-48
2022/03/30 06:45:10;;;;;;;8.90;2.63;;;6.60;95.60;;;;;;5183307;28;20524;-49
2022/03/30 06:47:41;;;;;;;9.23;2.67;;;6.60;95.30;;;;;;5220345;28;20482;-49
2022/03/30 06:50:13;;;;;;;4.77;2.30;;;6.80;94.80;;;;;;5193172;28;20428;-48
2022/03/30 06:52:44;;;;;;;9.53;2.53;;;6.90;93.40;;;;;;5270039;27;20206;-55
2022/03/30 06:55:15;;;;;;;9.70;2.87;;;7.00;92.40;;;;;;5194430;28;20480;-47
2022/03/30 06:57:47;;;;;;;7.57;2.33;;;7.30;91.40;;;;;;5192055;28;20221;-49
2022/03/30 07:00:17;;;;;;;11.73;2.93;;;7.40;88.70;;;;;;5274597;27;20944;-47
2022/03/30 07:02:48;;;;;;;10.27;3.20;;;7.90;86.60;;;;;;5187856;28;20447;-48
2022/03/30 07:05:18;;;;;;;5.63;2.17;;;9.10;75.90;;;;;;5192243;28;20213;-48
2022/03/30 07:10:38;;;;;;;15.30;2.40;;;11.40;53.80;;;;;;5176985;28;20246;-47
2022/03/30 07:13:09;;;;;;;9.60;3.20;;;11.80;50.10;;;;;;5198915;28;20728;-47
2022/03/30 07:15:41;;;;;;;10.23;2.27;;;12.20;48.30;;;;;;5196764;28;20655;-48
2022/03/30 07:18:13;;;;;;;8.27;2.87;;;12.00;46.60;;;;;;5283396;27;20199;-48
2022/03/30 07:20:43;;;;;;;8.00;2.70;;;10.90;48.20;;;;;;5183268;28;20488;-47
2022/03/30 07:23:14;;;;;;;9.70;3.10;;;10.10;50.60;;;;;;5218800;28;20870;-48
2022/03/30 07:25:44;;;;;;;12.50;3.23;;;9.60;53.10;;;;;;5195962;28;20279;-46
2022/03/30 07:28:16;;;;;;;12.87;3.80;;;9.30;54.70;;;;;;5176373;28;20220;-47
2022/03/30 07:30:48;;;;;;;9.70;3.17;;;9.10;55.60;;;;;;5178778;28;20185;-47
2022/03/30 07:33:20;;;;;;;11.47;2.90;;;8.70;56.60;;;;;;5178731;28;20880;-46
2022/03/30 07:35:51;;;;;;;11.90;3.57;;;8.40;58.30;;;;;;5177079;28;20447;-48
2022/03/30 07:38:21;;;;;;;13.17;3.60;;;8.00;60.00;;;;;;5180160;28;20474;-46
2022/03/30 07:40:53;;;;;;;11.13;2.77;;;8.10;62.60;;;;;;5179949;28;20220;-47
2022/03/30 07:43:24;;;;;;;8.60;3.00;;;8.40;63.30;;;;;;5179178;28;20203;-45
2022/03/30 07:45:55;;;;;;;18.77;3.33;;;9.00;60.20;;;;;;5282264;28;20442;-48
2022/03/30 07:48:25;;;;;;;23.97;5.00;;;9.40;58.40;;;;;;5179664;28;20568;-47
2022/03/30 07:50:56;;;;;;;10.93;3.60;;;9.70;57.10;;;;;;5177984;28;20538;-46
2022/03/30 07:53:26;;;;;;;23.03;5.00;;;9.80;56.50;;;;;;5180400;28;20265;-46
2022/03/30 07:55:57;;;;;;;12.40;3.00;;;10.10;55.00;;;;;;5163997;28;20208;-46
2022/03/30 07:58:28;;;;;;;12.87;3.13;;;10.60;53.60;;;;;;5184895;28;20210;-47
2022/03/30 08:00:58;;;;;;;9.30;2.67;;;11.00;51.60;;;;;;5182983;28;20446;-46
2022/03/30 08:03:29;;;;;;;12.67;4.50;;;11.50;49.70;;;;;;5179927;28;20237;-48
2022/03/30 08:06:00;;;;;;;5.10;2.30;;;11.30;48.20;;;;;;5181727;28;20552;-46
2022/03/30 08:08:31;;;;;;;11.57;3.50;;;11.30;48.60;;;;;;5177946;28;20577;-46
2022/03/30 08:11:02;;;;;;;17.10;3.33;;;11.70;48.20;;;;;;5180763;28;20431;-46
2022/03/30 08:13:33;;;;;;;14.57;2.70;;;12.20;47.30;;;;;;5183205;28;20235;-49
2022/03/30 08:16:04;;;;;;;5.80;1.80;;;12.90;45.60;;;;;;5180614;28;20860;-47
2022/03/30 08:18:34;;;;;;;16.63;2.80;;;13.60;44.40;;;;;;5174619;28;20612;-49
2022/03/30 08:23:55;;;;;;;11.03;3.20;;;12.70;42.80;;;;;;5178474;28;20228;-47
2022/03/30 08:26:26;;;;;;;11.23;2.77;;;11.40;44.40;;;;;;5187242;28;20512;-48
2022/03/30 08:28:56;;;;;;;7.97;2.30;;;10.60;46.20;;;;;;5180995;28;20524;-50
2022/03/30 08:31:27;;;;;;;8.60;2.60;;;10.50;47.90;;;;;;5176670;28;20270;-50
2022/03/30 08:33:58;;;;;;;7.57;2.70;;;10.70;48.00;;;;;;5177037;28;20184;-52
2022/03/30 08:36:29;;;;;;;4.50;1.83;;;10.60;45.30;;;;;;5183690;28;20564;-50
2022/03/30 08:39:05;;;;;;;7.00;2.97;;;10.10;46.00;;;;;;5177975;28;20675;-50
2022/03/30 08:41:38;;;;;;;4.63;2.00;;;9.80;47.70;;;;;;5183252;28;20954;-50
2022/03/30 08:44:10;;;;;;;4.83;1.93;;;9.80;48.60;;;;;;5272919;27;20981;-47
2022/03/30 08:46:42;;;;;;;8.17;2.37;;;10.10;46.80;;;;;;5173291;28;20516;-50
2022/03/30 08:49:13;;;;;;;3.63;2.30;;;10.40;47.20;;;;;;5272196;27;20460;-49
2022/03/30 08:51:47;;;;;;;8.67;2.37;;;10.70;47.10;;;;;;5184920;28;20919;-50
2022/03/30 08:54:19;;;;;;;10.23;2.80;;;10.70;45.10;;;;;;5182713;28;20498;-48
2022/03/30 08:56:49;;;;;;;4.50;2.13;;;10.90;45.20;;;;;;5186754;28;20462;-49
2022/03/30 08:59:21;;;;;;;12.53;2.60;;;11.10;43.90;;;;;;5200535;28;20534;-50
2022/03/30 09:01:57;;;;;;;10.00;2.50;;;10.80;43.10;;;;;;5281424;27;20229;-49
2022/03/30 09:04:27;;;;;;;9.67;2.30;;;10.70;44.00;;;;;;5192615;28;20468;-52
2022/03/30 09:06:59;;;;;;;6.63;2.00;;;10.50;43.70;;;;;;5285198;27;20430;-50
2022/03/30 09:09:35;;;;;;;16.20;3.13;;;10.60;44.40;;;;;;5182675;28;20205;-50
2022/03/30 09:12:08;;;;;;;10.53;2.20;;;10.70;43.70;;;;;;5197398;28;20530;-49
2022/03/30 09:14:42;;;;;;;7.77;2.30;;;10.40;44.30;;;;;;5179652;28;20444;-49
2022/03/30 09:17:13;;;;;;;15.23;2.13;;;10.00;43.40;;;;;;5208567;28;20457;-50
2022/03/30 09:19:44;;;;;;;5.50;1.80;;;9.60;44.90;;;;;;5208445;28;20472;-51
2022/03/30 09:22:14;;;;;;;20.97;2.40;;;9.40;44.20;;;;;;5179188;28;20725;-49
2022/03/30 09:24:45;;;;;;;4.77;1.83;;;9.50;45.00;;;;;;5204622;28;20581;-51
2022/03/30 09:27:16;;;;;;;14.20;2.10;;;9.70;44.60;;;;;;5284318;27;20214;-50
2022/03/30 09:29:47;;;;;;;7.13;2.37;;;10.10;44.30;;;;;;5189717;28;20243;-50
2022/03/30 09:32:17;;;;;;;11.17;1.80;;;10.30;44.20;;;;;;5193380;28;20443;-51
2022/03/30 09:34:53;;;;;;;6.07;1.97;;;10.60;42.80;;;;;;5180286;28;20188;-49
2022/03/30 09:37:24;;;;;;;5.43;2.10;;;10.40;42.80;;;;;;5277109;27;20727;-50
2022/03/30 09:39:54;;;;;;;8.73;1.73;;;10.30;43.20;;;;;;5273084;27;20552;-50
2022/03/30 09:42:27;;;;;;;10.87;1.70;;;10.20;43.70;;;;;;5194407;28;20543;-50
2022/03/30 09:44:58;;;;;;;22.77;2.30;;;10.30;43.90;;;;;;5277246;27;20299;-50
2022/03/30 09:47:39;;;;;;;2.33;2.13;;;10.60;43.40;;;;;;5198895;28;20534;-52
2022/03/30 09:50:09;;;;;;;9.67;2.57;;;10.40;43.30;;;;;;5194017;28;20657;-50
2022/03/30 09:52:42;;;;;;;3.27;1.90;;;10.30;43.70;;;;;;5184204;28;20455;-50
2022/03/30 09:55:13;;;;;;;6.67;2.27;;;10.20;44.10;;;;;;5259130;28;20242;-50
2022/03/30 09:57:44;;;;;;;8.13;2.20;;;10.20;44.10;;;;;;5183359;28;20452;-49
2022/03/30 10:00:18;;;;;;;8.63;2.03;;;10.30;44.40;;;;;;5210308;28;20451;-49
2022/03/30 10:02:51;;;;;;;5.33;1.90;;;10.50;43.40;;;;;;5281746;27;20572;-52
2022/03/30 10:05:23;;;;;;;8.53;2.40;;;10.50;42.80;;;;;;5199642;28;20510;-48
2022/03/30 10:07:55;;;;;;;14.50;2.67;;;10.10;42.80;;;;;;5201923;28;20471;-50
2022/03/30 10:10:26;;;;;;;10.63;2.20;;;10.00;43.60;;;;;;5210405;28;20511;-50
2022/03/30 10:12:57;;;;;;;12.50;3.10;;;9.90;44.80;;;;;;5202534;28;20767;-51
2022/03/30 10:15:28;;;;;;;6.40;1.90;;;10.30;43.70;;;;;;5179389;28;20507;-51
2022/03/30 10:17:58;;;;;;;6.80;2.50;;;10.20;43.00;;;;;;5180762;28;20220;-50
2022/03/30 10:20:31;;;;;;;9.43;2.37;;;10.10;43.50;;;;;;5290821;27;20434;-49
2022/03/30 10:23:19;;;;;;;7.13;2.20;;;10.10;43.70;;;;;;5291557;27;20237;-49
2022/03/30 10:25:56;;;;;;;10.70;3.07;;;9.90;44.80;;;;;;5194187;28;20442;-50
2022/03/30 10:28:35;;;;;;;10.10;2.00;;;10.10;43.70;;;;;;5280469;27;20474;-50
2022/03/30 10:31:05;;;;;;;25.53;2.33;;;10.10;43.70;;;;;;5192749;28;20513;-50
2022/03/30 10:33:44;;;;;;;4.47;1.93;;;10.10;43.40;;;;;;5185685;28;20546;-50
2022/03/30 10:36:32;;;;;;;4.63;2.13;;;10.10;43.70;;;;;;5197728;28;20279;-52
2022/03/30 10:39:07;;;;;;;8.03;2.00;;;9.90;44.40;;;;;;5193282;28;20459;-49
2022/03/30 10:42:08;;;;;;;6.43;2.20;;;9.70;45.00;;;;;;5196176;28;20796;-49
2022/03/30 10:44:42;;;;;;;9.67;2.20;;;9.60;45.50;;;;;;5183224;28;20462;-50
2022/03/30 10:47:18;;;;;;;9.37;2.10;;;9.30;45.50;;;;;;5178402;28;20484;-49
2022/03/30 10:49:51;;;;;;;3.60;1.53;;;9.30;46.30;;;;;;5175355;28;20460;-50
2022/03/30 10:52:25;;;;;;;3.50;1.90;;;9.70;46.50;;;;;;5174542;28;20583;-48
2022/03/30 10:55:16;;;;;;;4.93;1.57;;;10.30;44.30;;;;;;5222682;28;20444;-49
2022/03/30 10:57:52;;;;;;;4.23;1.73;;;10.80;43.00;;;;;;5194208;28;20506;-48
2022/03/30 11:00:29;;;;;;;7.30;2.30;;;11.00;41.80;;;;;;5217413;28;20503;-49
2022/03/30 11:03:21;;;;;;;4.60;2.47;;;10.80;41.80;;;;;;5175937;28;20434;-49
2022/03/30 11:06:05;;;;;;;8.23;2.23;;;10.90;42.00;;;;;;5180783;28;20450;-51
2022/03/30 11:08:36;;;;;;;6.07;2.10;;;11.20;41.20;;;;;;5175042;28;20546;-49
2022/03/30 11:11:26;;;;;;;6.53;2.30;;;11.50;41.10;;;;;;5200133;28;20423;-50
2022/03/30 11:14:21;;;;;;;2.27;2.07;;;11.50;40.70;;;;;;5191517;28;20474;-50
2022/03/30 11:16:53;;;;;;;8.90;2.40;;;11.20;40.70;;;;;;5276836;27;20451;-50
2022/03/30 11:19:31;;;;;;;4.93;1.60;;;11.20;40.30;;;;;;5213348;28;20451;-48
2022/03/30 11:22:09;;;;;;;2.30;1.80;;;11.30;40.20;;;;;;5198703;28;20467;-52
2022/03/30 11:24:45;;;;;;;4.33;2.70;;;11.00;40.10;;;;;;5189561;28;20489;-50
2022/03/30 11:27:17;;;;;;;6.10;2.27;;;11.10;40.50;;;;;;5188958;28;20439;-51
2022/03/30 11:29:53;;;;;;;18.20;3.20;;;11.60;40.40;;;;;;5200210;28;20950;-51
2022/03/30 11:32:29;;;;;;;16.63;8.23;;;11.90;39.60;;;;;;5174425;28;20837;-51
2022/03/30 11:35:03;;;;;;;6.73;2.73;;;12.20;39.00;;;;;;5182075;28;20941;-53
2022/03/30 11:37:39;;;;;;;4.90;2.33;;;11.80;38.50;;;;;;5286177;27;20434;-51
2022/03/30 11:40:15;;;;;;;6.10;2.60;;;11.70;39.20;;;;;;5198546;28;20497;-52
2022/03/30 11:42:52;;;;;;;4.43;1.90;;;11.90;39.30;;;;;;5187112;28;20446;-50
2022/03/30 11:45:25;;;;;;;6.70;2.30;;;11.70;39.10;;;;;;5198685;28;20474;-50
2022/03/30 11:47:59;;;;;;;8.73;2.30;;;11.10;39.80;;;;;;5182469;28;20494;-50
2022/03/30 11:50:42;;;;;;;11.33;3.67;;;10.30;40.80;;;;;;5185761;28;20449;-51
2022/03/30 11:53:18;;;;;;;4.30;2.27;;;10.00;41.80;;;;;;5187611;28;20512;-52
2022/03/30 11:55:55;;;;;;;3.40;2.40;;;9.90;43.10;;;;;;5187170;28;20581;-50
2022/03/30 11:58:34;;;;;;;4.97;2.53;;;9.80;43.60;;;;;;5281117;27;20447;-51
2022/03/30 12:01:07;;;;;;;7.30;2.73;;;9.80;44.30;;;;;;5286646;27;20831;-49
2022/03/30 12:03:40;;;;;;;9.33;2.93;;;9.70;44.00;;;;;;5213876;27;21394;-50
2022/03/30 12:06:12;;;;;;;9.93;2.70;;;9.90;44.30;;;;;;5221968;28;20790;-52
2022/03/30 12:08:46;;;;;;;11.33;2.80;;;9.90;43.70;;;;;;5190133;28;20526;-50
2022/03/30 12:11:20;;;;;;;14.37;2.77;;;9.80;44.20;;;;;;5197545;28;20435;-49
2022/03/30 12:13:53;;;;;;;24.57;2.70;;;9.70;44.70;;;;;;5213964;28;20485;-49
2022/03/30 12:16:26;;;;;;;8.03;2.70;;;9.70;45.30;;;;;;5280391;27;20439;-50
2022/03/30 12:19:00;;;;;;;9.47;2.10;;;9.40;45.60;;;;;;5185105;28;20821;-49
2022/03/30 12:21:38;;;;;;;4.57;2.87;;;9.20;46.30;;;;;;5280648;27;20503;-49
2022/03/30 12:24:12;;;;;;;10.70;3.10;;;9.10;46.90;;;;;;5192088;28;20511;-49
2022/03/30 12:26:43;;;;;;;8.93;2.87;;;9.10;47.20;;;;;;5197607;28;20531;-50
2022/03/30 12:29:17;;;;;;;7.13;2.37;;;9.20;47.10;;;;;;5216745;28;20882;-49
2022/03/30 12:31:53;;;;;;;5.40;3.70;;;9.30;47.20;;;;;;5205215;28;21007;-50
2022/03/30 12:34:24;;;;;;;4.93;3.30;;;9.30;46.60;;;;;;5182453;28;20430;-51
2022/03/30 12:37:01;;;;;;;9.60;3.07;;;9.20;46.60;;;;;;5180716;28;20443;-50
2022/03/30 12:39:40;;;;;;;11.43;3.13;;;9.10;46.80;;;;;;5189870;28;20526;-48
2022/03/30 12:42:22;;;;;;;9.13;3.10;;;8.90;46.90;;;;;;5189380;28;20423;-48
2022/03/30 12:44:56;;;;;;;8.03;3.40;;;8.80;47.10;;;;;;5186579;28;20467;-50
2022/03/30 12:47:30;;;;;;;11.93;3.10;;;8.70;47.20;;;;;;5189021;28;20454;-49
2022/03/30 12:50:10;;;;;;;4.17;3.23;;;8.70;47.00;;;;;;5194993;28;20437;-50
2022/03/30 12:52:51;;;;;;;5.70;2.50;;;8.70;46.80;;;;;;5179109;28;20443;-50
2022/03/30 12:55:32;;;;;;;3.00;2.73;;;8.70;46.80;;;;;;5188962;28;20450;-52
2022/03/30 12:58:08;;;;;;;8.47;3.10;;;8.70;46.50;;;;;;5178486;28;20455;-49
2022/03/30 13:00:41;;;;;;;6.00;2.80;;;8.70;46.60;;;;;;5189088;28;20749;-49
2022/03/30 13:03:18;;;;;;;11.23;3.40;;;8.80;46.30;;;;;;5199466;28;20511;-48
2022/03/30 13:06:01;;;;;;;7.17;3.20;;;8.70;46.20;;;;;;5180074;28;20442;-48
2022/03/30 13:08:32;;;;;;;7.87;3.20;;;8.70;46.40;;;;;;5209076;28;20958;-51
2022/03/30 13:11:06;;;;;;;4.00;1.90;;;8.50;46.40;;;;;;5202565;28;20446;-50
2022/03/30 13:13:39;;;;;;;5.67;3.00;;;8.60;46.50;;;;;;5264777;28;20212;-50
2022/03/30 13:16:19;;;;;;;8.10;2.63;;;8.60;47.00;;;;;;5284395;27;20958;-50
2022/03/30 13:19:01;;;;;;;7.00;2.43;;;8.60;46.80;;;;;;5175426;28;20789;-51
2022/03/30 13:21:46;;;;;;;7.53;2.83;;;8.60;46.90;;;;;;5205596;28;20580;-51
2022/03/30 13:24:18;;;;;;;8.47;3.63;;;8.70;47.30;;;;;;5277559;27;20462;-52
2022/03/30 13:26:55;;;;;;;6.70;3.17;;;9.00;47.40;;;;;;5176252;28;20444;-51